Corsham, United Kingdom
Current Conditions -  °F | °C
As of 8:20 AM on Saturday 01 Nov 2014 (Local Time) from EGGD Reporting Station
Few Clouds Few Clouds  
Wind Chill: 52°   Ceiling: Unl
Heat Index: 52°   Visibility: 6mi
Dew Point: 50°   Wind: 6mph
Humidity: 94%   Direction: 190°S
Pressure: 29.97"   Gusts: NA
Location:  51.43°N, 2.18°W
Report Text: EGGD 010820Z 19005KT 160V230 9999 FEW006 11/10 Q1015
Loading
Personal Weather Stations






























Interactive Weather Map
Tropical Storm Tracking
New forecast layout! Learn more

10-Day Weather Forecast

Advertisements
Track Severe Weather on mobile